Flight Track Log - Related Links

Times and Time Zones

All times are in EDT time to prevent confusion due to time zone crossing. See the SWA508 flight status page for this flight to view local times or setup timezone preferences in your user account.

Time Position Orientation Groundspeed Altitude Reporting Facility
EDT Latitude Longitude Course Direction KTS MPH feet Rate Location/Type
Sun 09:37:48 PM 18.4340 -65.9730 75° East 172 198 1,500  Level FlightAware ADS-B
Sun 09:38:00 PM 18.4410 -65.9640 51° Northeast 201 231 1,600 900 Climbing FlightAware ADS-B
Sun 09:38:08 PM 18.4480 -65.9610 22° Northeast 209 241 1,800 1,875 Climbing FlightAware ADS-B
Sun 09:38:32 PM 18.4720 -65.9650 351° North 241 277 2,600 2,000 Climbing FlightAware ADS-B
Sun 09:38:44 PM 18.4840 -65.9710 335° Northwest 250 288 3,000 2,700 Climbing FlightAware ADS-B
Sun 09:39:12 PM 18.5150 -65.9850 337° Northwest 263 303 4,400 2,885 Climbing FlightAware ADS-B
Sun 09:39:36 PM 18.5410 -66.0010 330° Northwest 278 320 5,500 3,000 Climbing FlightAware ADS-B
Sun 09:39:52 PM 18.5560 -66.0160 317° Northwest 282 325 6,400 3,136 Climbing FlightAware ADS-B
Sun 09:40:20 PM 18.5800 -66.0470 309° West 290 334 7,800 2,786 Climbing FlightAware ADS-B
Sun 09:40:48 PM 18.6040 -66.0770 310° West 301 346 9,000 2,739 Climbing FlightAware ADS-B
Sun 09:41:06 PM 18.6200 -66.0970 310° West 304 350 9,900 2,276 Climbing FlightAware ADS-B
Sun 09:41:46 PM 18.6580 -66.1450 310° West 337 388 11,200 1,756 Climbing FlightAware ADS-B
Sun 09:42:28 PM 18.7030 -66.2010 310° West 370 426 12,300 1,650 Climbing FlightAware ADS-B
Sun 09:43:06 PM 18.7470 -66.2560 310° West 396 456 13,400 2,071 Climbing FlightAware ADS-B
Sun 09:43:52 PM 18.8020 -66.3250 310° West 407 468 15,200 2,442 Climbing FlightAware ADS-B
Sun 09:44:32 PM 18.8510 -66.3850 311° West 411 473 16,900 2,259 Climbing FlightAware ADS-B
Sun 09:45:17 PM 18.9060 -66.4550 310° West 420 483 18,400 2,071 Climbing FlightAware ADS-B
Sun 09:45:56 PM 18.9560 -66.5170 310° West 429 494 19,800 1,975 Climbing FlightAware ADS-B
Sun 09:46:36 PM 19.0090 -66.5830 310° West 437 503 21,000 1,870 Climbing FlightAware ADS-B
Sun 09:47:13 PM 19.0570 -66.6430 310° West 443 510 22,200 1,829 Climbing FlightAware ADS-B
Sun 09:47:58 PM 19.1170 -66.7190 310° West 450 518 23,500 1,694 Climbing FlightAware ADS-B
Sun 09:48:38 PM 19.1710 -66.7870 310° West 456 525 24,600 1,538 Climbing FlightAware ADS-B
Sun 09:49:16 PM 19.2220 -66.8510 310° West 463 533 25,500 1,429 Climbing FlightAware ADS-B
Sun 09:50:02 PM 19.2860 -66.9320 310° West 467 537 26,600 1,533 Climbing FlightAware ADS-B
Sun 09:50:46 PM 19.3480 -67.0090 310° West 468 539 27,800 1,571 Climbing FlightAware ADS-B
Sun 09:51:26 PM 19.4030 -67.0790 310° West 469 540 28,800 1,500 Climbing FlightAware ADS-B
Sun 09:52:02 PM 19.4530 -67.1420 310° West 466 536 29,700 1,403 Climbing FlightAware ADS-B
Sun 09:52:43 PM 19.5110 -67.2150 310° West 470 541 30,600 1,244 Climbing FlightAware ADS-B
Sun 09:53:24 PM 19.5690 -67.2880 310° West 472 543 31,400 1,215 Climbing FlightAware ADS-B
Sun 09:54:02 PM 19.6220 -67.3560 310° West 472 543 32,200 1,154 Climbing FlightAware ADS-B
Sun 09:54:42 PM 19.6770 -67.4260 310° West 473 544 32,900 1,171 Climbing FlightAware ADS-B
Sun 09:55:24 PM 19.7360 -67.5010 310° West 471 542 33,800 1,286 Climbing FlightAware ADS-B
Sun 09:56:06 PM 19.7960 -67.5770 310° West 467 537 34,700 1,186 Climbing FlightAware ADS-B
Sun 09:56:50 PM 19.8550 -67.6530 310° West 466 536 35,500 929 Climbing FlightAware ADS-B
Sun 09:57:30 PM 19.9120 -67.7240 310° West 468 539 36,000 357 Climbing FlightAware ADS-B
Sun 09:58:14 PM 19.9720 -67.8020 309° West 472 543 36,000  Level FlightAware ADS-B
Sun 09:58:54 PM 20.0290 -67.8740 310° West 472 543 36,000  Level FlightAware ADS-B
Sun 09:59:35 PM 20.0850 -67.9470 309° West 470 541 36,000  Level FlightAware ADS-B
Sun 10:01:44 PM 20.2420 -68.1510 309° West 469 540 36,000  Level FlightAware ADS-B
Sun 10:02:29 PM 20.3150 -68.2630 305° West 465 535 36,000  Level FlightAware ADS-B
Sun 10:03:10 PM 20.3670 -68.3400 306° West 464 534 36,000  Level FlightAware ADS-B
Sun 10:03:54 PM 20.4210 -68.4200 306° West 463 533 36,000  Level FlightAware ADS-B
Sun 10:04:51 PM 20.4870 -68.5210 305° West 463 533 36,000  Level FlightAware ADS-B
Sun 10:05:27 PM 20.5250 -68.5780 305° West 463 533 36,000  Level FlightAware ADS-B
Sun 10:06:15 PM 20.5750 -68.6540 305° West 463 533 36,000  Level FlightAware ADS-B
Sun 10:06:51 PM 20.6130 -68.7120 305° West 463 533 36,000  Level FlightAware ADS-B
Sun 10:07:39 PM 20.6630 -68.7880 305° West 463 533 36,000  Level FlightAware ADS-B
Sun 10:08:16 PM 20.7010 -68.8470 305° West 463 533 36,000  Level FlightAware ADS-B
Sun 10:09:04 PM 20.7520 -68.9240 305° West 463 533 36,000  Level FlightAware ADS-B
Sun 10:09:40 PM 20.7890 -68.9810 305° West 463 533 36,000  Level FlightAware ADS-B
Sun 10:10:29 PM 20.8400 -69.0590 305° West 463 533 36,000  Level FlightAware ADS-B
Sun 10:10:54 PM 20.8660 -69.0990 305° West 463 533 36,000  Level FlightAware ADS-B
Sun 10:11:40 PM 20.9140 -69.1730 305° West 463 533 36,000  Level FlightAware ADS-B
Sun 10:12:29 PM 20.9660 -69.2510 306° West 463 533 36,000  Level FlightAware ADS-B
Sun 10:12:53 PM 20.9910 -69.2890 305° West 463 533 36,000  Level FlightAware ADS-B
Sun 10:13:41 PM 21.0410 -69.3660 305° West 463 533 36,000  Level FlightAware ADS-B
Sun 10:14:18 PM 21.1806 -69.5647 305° West 452 520 36,000  Level Miami Center
Sun 10:15:17 PM 21.2522 -69.6742 305° West 452 520 36,000  Level Miami Center
Sun 10:16:17 PM 21.3086 -69.7622 305° West 452 520 36,000  Level Miami Center
Sun 10:17:18 PM 21.3958 -69.8956 305° West 452 520 36,000  Level Miami Center
Sun 10:18:20 PM 21.4675 -70.0033 306° West 452 520 36,000  Level Miami Center
Sun 10:19:18 PM 21.5369 -70.1156 304° West 452 520 36,000  Level Miami Center
Sun 10:20:20 PM 21.6086 -70.2258 305° West 452 520 36,000  Level Miami Center
Sun 10:21:18 PM 21.6778 -70.3339 305° West 447 514 36,000  Level Miami Center
Sun 10:22:20 PM 21.7492 -70.4419 305° West 447 514 36,000  Level Miami Center
Sun 10:23:19 PM 21.8206 -70.5522 305° West 452 520 36,000  Level Miami Center
Sun 10:24:18 PM 21.8894 -70.6608 304° West 452 520 36,000  Level Miami Center
Sun 10:25:20 PM 21.9586 -70.7717 304° West 452 520 36,000  Level Miami Center
Sun 10:26:18 PM 22.0319 -70.8822 306° West 452 520 36,000  Level Miami Center
Sun 10:27:17 PM 22.1008 -70.9933 304° West 447 514 36,000  Level Miami Center
Sun 10:28:18 PM 22.1739 -71.1022 306° West 447 514 36,000  Level Miami Center
Sun 10:29:18 PM 22.2428 -71.2133 304° West 447 514 36,000  Level Miami Center
Sun 10:30:17 PM 22.3117 -71.3247 304° West 447 514 36,000  Level Miami Center
Sun 10:31:19 PM 22.3844 -71.4339 306° West 447 514 36,000  Level Miami Center
Sun 10:32:18 PM 22.4531 -71.5433 304° West 447 514 36,000  Level Miami Center
Sun 10:33:19 PM 22.5214 -71.6550 304° West 447 514 36,000  Level Miami Center
Sun 10:34:20 PM 22.5922 -71.7669 304° West 447 514 36,000  Level Miami Center
Sun 10:35:17 PM 22.6606 -71.8767 304° West 447 514 36,000  Level Miami Center
Sun 10:36:20 PM 22.7289 -71.9867 304° West 447 514 36,000  Level Miami Center
Sun 10:37:18 PM 22.7989 -72.0942 305° West 447 514 36,000  Level Miami Center
Sun 10:38:19 PM 22.8692 -72.2042 305° West 447 514 36,000  Level Miami Center
Sun 10:39:18 PM 22.9353 -72.3192 302° West 447 514 36,000  Level Miami Center
Sun 10:40:18 PM 23.0033 -72.4250 305° West 447 514 36,000  Level Miami Center
Sun 10:41:19 PM 23.0608 -72.5381 299° West 442 509 36,000  Level Miami Center
Sun 10:42:20 PM 23.1392 -72.6461 308° West 442 509 36,000  Level Miami Center
Sun 10:43:18 PM 23.2089 -72.7567 304° West 448 516 36,000  Level Miami Center
Sun 10:44:20 PM 23.2725 -72.8656 302° West 442 509 36,000  Level Miami Center
Sun 10:45:20 PM 23.3403 -72.9764 304° West 442 509 36,000  Level Miami Center
Sun 10:46:18 PM 23.4161 -73.0850 307° West 449 517 36,000  Level Miami Center
Sun 10:47:20 PM 23.4772 -73.1964 301° West 449 517 36,000  Level Miami Center
Sun 10:48:18 PM 23.5447 -73.3078 303° West 449 517 36,000  Level Miami Center
Sun 10:49:18 PM 23.6119 -73.4192 303° West 449 517 36,000  Level Miami Center
Sun 10:50:20 PM 23.6794 -73.5308 303° West 449 517 36,000  Level Miami Center
Sun 10:51:18 PM 23.7467 -73.6425 303° West 449 517 36,000  Level Miami Center
Sun 10:52:18 PM 23.8181 -73.7564 304° West 449 517 36,000  Level Miami Center
Sun 10:53:19 PM 23.8869 -73.8683 304° West 449 517 36,000  Level Miami Center
Sun 10:54:18 PM 23.9561 -73.9803 304° West 449 517 36,000  Level Miami Center
Sun 10:55:17 PM 24.0231 -74.0925 303° West 449 517 36,000  Level Miami Center
Sun 10:56:18 PM 24.0897 -74.2025 304° West 449 517 36,000  Level Miami Center
Sun 10:57:18 PM 24.1586 -74.3172 303° West 449 517 36,000  Level Miami Center
Sun 10:58:18 PM 24.2253 -74.4319 303° West 449 517 36,000  Level Miami Center
Sun 10:59:20 PM 24.2939 -74.5425 304° West 449 517 36,000  Level Miami Center
Sun 11:00:17 PM 24.3647 -74.6597 304° West 449 517 36,000  Level Miami Center
Sun 11:01:19 PM 24.4311 -74.7728 303° West 449 517 36,000  Level Miami Center
Sun 11:02:18 PM 24.4975 -74.8833 303° West 449 517 36,000  Level Miami Center
Sun 11:03:20 PM 24.5636 -74.9989 302° West 449 517 36,000  Level Miami Center
Sun 11:04:20 PM 24.6300 -75.1100 303° West 449 517 36,000  Level Miami Center
Sun 11:05:19 PM 24.6981 -75.2233 303° West 449 517 36,000  Level Miami Center
Sun 11:06:20 PM 24.7661 -75.3392 303° West 449 517 36,000  Level Miami Center
Sun 11:07:17 PM 24.8322 -75.4550 302° West 449 517 36,000  Level Miami Center
Sun 11:08:17 PM 24.9000 -75.5689 303° West 456 525 36,000  Level Miami Center
Sun 11:09:18 PM 24.9614 -75.6758 302° West 456 525 36,000  Level Miami Center
Sun 11:10:19 PM 25.0397 -75.7967 306° West 449 517 36,000  Level Miami Center
Sun 11:11:18 PM 25.1219 -75.8925 313° West 444 511 36,000  Level Miami Center
Sun 11:12:18 PM 25.2144 -75.9906 316° Northwest 438 504 36,000  Level Miami Center
Sun 11:13:18 PM 25.2944 -76.0911 311° West 444 511 36,000  Level Miami Center
Sun 11:14:19 PM 25.3681 -76.1986 307° West 444 511 36,000  Level Miami Center
Sun 11:15:20 PM 25.4458 -76.3042 309° West 444 511 36,000  Level Miami Center
Sun 11:16:18 PM 25.5342 -76.4028 315° West 439 505 36,000  Level Miami Center
Sun 11:17:20 PM 25.6178 -76.4992 314° West 444 511 36,000  Level Miami Center
Sun 11:18:18 PM 25.7017 -76.5958 314° West 438 504 36,000  Level Miami Center
Sun 11:19:17 PM 25.7897 -76.6881 317° Northwest 438 504 36,000  Level Miami Center
Sun 11:20:17 PM 25.8836 -76.7825 318° Northwest 438 504 36,000  Level Miami Center
Sun 11:21:17 PM 25.9714 -76.8750 317° Northwest 438 504 36,000  Level Miami Center
Sun 11:22:17 PM 26.0633 -76.9697 317° Northwest 443 510 36,000  Level Miami Center
Sun 11:23:18 PM 26.1531 -77.0647 316° Northwest 443 510 36,000  Level Miami Center
Sun 11:24:19 PM 26.2469 -77.1600 318° Northwest 449 517 36,000  Level Miami Center
Sun 11:25:17 PM 26.3389 -77.2553 317° Northwest 449 517 36,000  Level Miami Center
Sun 11:31:10 PM 26.7780 -77.9010 317° Northwest 453 521 36,000  Level FlightAware ADS-B
Sun 11:31:51 PM 26.8070 -77.9770 293° West 454 522 36,000  Level FlightAware ADS-B
Sun 11:32:39 PM 26.8450 -78.0780 293° West 456 525 36,000  Level FlightAware ADS-B
Sun 11:33:25 PM 26.8880 -78.1920 293° West 458 527 36,000  Level FlightAware ADS-B
Sun 11:34:11 PM 26.9250 -78.2910 293° West 458 527 36,000  Level FlightAware ADS-B
Sun 11:34:56 PM 26.9630 -78.3920 293° West 458 527 36,000  Level FlightAware ADS-B
Sun 11:35:50 PM 27.0020 -78.4960 293° West 458 527 36,000  Level FlightAware ADS-B
Sun 11:36:38 PM 27.0340 -78.5860 292° West 458 527 36,000  Level FlightAware ADS-B
Sun 11:37:15 PM 27.0590 -78.6550 292° West 458 527 36,000  Level FlightAware ADS-B
Sun 11:37:51 PM 27.0980 -78.7550 294° West 455 524 36,000  Level FlightAware ADS-B
Sun 11:38:39 PM 27.1300 -78.8440 292° West 455 524 36,000  Level FlightAware ADS-B
Sun 11:39:12 PM 27.1720 -78.9520 294° West 452 520 36,000 -75 Level FlightAware ADS-B
Sun 11:39:59 PM 27.2070 -79.0480 292° West 449 517 35,900 -625 Descending FlightAware ADS-B
Sun 11:40:48 PM 27.2470 -79.1580 292° West 454 522 35,000 -1,011 Descending FlightAware ADS-B
Sun 11:41:28 PM 27.2800 -79.2470 293° West 457 526 34,400 -929 Descending FlightAware ADS-B
Sun 11:42:12 PM 27.3140 -79.3400 292° West 461 531 33,700 -975 Descending FlightAware ADS-B
Sun 11:42:48 PM 27.3450 -79.4240 293° West 459 528 33,100 -968 Descending FlightAware ADS-B
Sun 11:43:45 PM 27.3890 -79.5460 292° West 455 524 32,200 -736 Descending FlightAware ADS-B
Sun 11:44:34 PM 27.4270 -79.6490 293° West 461 531 31,800 -635 Descending FlightAware ADS-B
Sun 11:45:10 PM 27.4540 -79.7260 292° West 457 526 31,300 -1,297 Descending FlightAware ADS-B
Sun 11:45:48 PM 27.4910 -79.8270 292° West 472 543 30,200 -1,325 Descending FlightAware ADS-B
Sun 11:46:27 PM 27.5220 -79.9120 292° West 469 540 29,600 -878 Descending FlightAware ADS-B
Sun 11:47:10 PM 27.5560 -80.0080 292° West 472 543 29,000 -911 Descending FlightAware ADS-B
Sun 11:47:46 PM 27.5860 -80.0910 292° West 474 545 28,400 -568 Descending FlightAware ADS-B
Sun 11:48:45 PM 27.6270 -80.2090 291° West 474 545 28,100 -695 Descending FlightAware ADS-B
Sun 11:49:21 PM 27.6590 -80.2990 292° West 474 545 27,300 -571 Descending FlightAware ADS-B
Sun 11:50:09 PM 27.6910 -80.3930 291° West 474 545 27,300  Level FlightAware ADS-B
Sun 11:50:45 PM 27.7150 -80.4640 291° West 474 545 27,300 -4,143 Level FlightAware ADS-B
Sun 11:51:33 PM 27.7650 -80.5930 294° West 431 496 21,500 -5,143 Descending FlightAware ADS-B
Sun 11:52:09 PM 27.7910 -80.6670 292° West 416 479 20,100 -1,397 Descending FlightAware ADS-B
Sun 11:52:46 PM 27.8100 -80.7250 290° West 416 479 19,800 -247 Descending FlightAware ADS-B
Sun 11:53:22 PM 27.8300 -80.7880 290° West 416 479 19,800  Level FlightAware ADS-B
Sun 11:54:10 PM 27.8570 -80.8710 290° West 416 479 19,800  Level FlightAware ADS-B
Sun 11:54:46 PM 27.8770 -80.9340 290° West 416 479 19,800  Level FlightAware ADS-B
Sun 11:55:22 PM 27.8970 -80.9970 290° West 416 479 19,800  Level FlightAware ADS-B
Sun 11:56:10 PM 27.9240 -81.0800 290° West 416 479 19,800 -6,264 Level FlightAware ADS-B
Sun 11:56:53 PM 28.0370 -81.1450 333° Northwest 343 395 10,300 -8,333 Descending FlightAware ADS-B
Sun 11:57:22 PM 28.0790 -81.1590 344° North 327 376 9,800 -417 Descending FlightAware ADS-B
Sun 11:58:05 PM 28.1320 -81.1770 343° North 326 375 9,800  Level FlightAware ADS-B
Sun 11:58:27 PM 28.1590 -81.1860 344° North 326 375 9,800  Level FlightAware ADS-B
Sun 11:58:52 PM 28.1900 -81.1970 343° North 326 375 9,800 -1,813 Level FlightAware ADS-B
Mon 12:00:03 AM 28.2950 -81.1870 North 285 328 6,900 -2,354 Descending FlightAware ADS-B
Mon 12:00:11 AM 28.3050 -81.1870 360° North 283 326 6,700 -1,286 Descending FlightAware ADS-B
Mon 12:00:31 AM 28.3320 -81.1870 360° North 280 322 6,300 -1,313 Descending FlightAware ADS-B
Mon 12:00:43 AM 28.3440 -81.1870 360° North 280 322 6,000 -1,440 Descending FlightAware ADS-B
Mon 12:01:21 AM 28.3980 -81.1870 360° North 278 320 5,100 -1,258 Descending FlightAware ADS-B
Mon 12:01:45 AM 28.4260 -81.1870 360° North 272 313 4,700 -1,469 Descending FlightAware ADS-B
Mon 12:02:10 AM 28.4590 -81.1870 360° North 270 311 3,900 -1,674 Descending FlightAware ADS-B
Mon 12:02:28 AM 28.4780 -81.1920 347° North 264 304 3,500 -1,800 Descending FlightAware ADS-B
Mon 12:02:40 AM 28.4900 -81.2000 330° Northwest 253 291 3,000 -837 Descending FlightAware ADS-B
Mon 12:03:11 AM 28.5110 -81.2170 325° Northwest 253 291 2,900 -1,024 Descending FlightAware ADS-B
Mon 12:04:02 AM 28.4910 -81.2000 143° Southeast 253 291 1,600 -1,026 Descending FlightAware ADS-B
Mon 12:04:27 AM 28.5050 -81.2230 305° West 253 291 1,600 -700 Level FlightAware ADS-B
Mon 12:05:02 AM 28.4667 -81.3000 305° West 142 163 900 -1,200 Descending Orlando TRACON
Mon 12:07:00 AM 28.4294 -81.3090 199° South  Level Estimated

Login

Don't have an account? Register now (free) for customized features, flight alerts, and more!